createdAt,value
2018-04-11T00:00:01.259Z,9.68
2018-04-11T00:00:05.481Z,9.68
2018-04-11T00:00:09.691Z,9.68
2018-04-11T00:00:13.795Z,9.68
2018-04-11T00:00:17.902Z,9.68
2018-04-11T00:00:22.239Z,9.68
2018-04-11T00:00:26.605Z,9.68
2018-04-11T00:00:30.705Z,9.68
2018-04-11T00:00:35.023Z,9.69
2018-04-11T00:00:39.231Z,9.69
2018-04-11T00:00:43.008Z,9.69
2018-04-11T00:00:47.329Z,9.69
2018-04-11T00:00:51.651Z,9.68
2018-04-11T00:00:55.751Z,9.69
2018-04-11T00:00:59.966Z,9.7
2018-04-11T00:01:04.177Z,9.7
2018-04-11T00:01:08.280Z,9.69
2018-04-11T00:01:12.598Z,9.7
2018-04-11T00:01:16.809Z,9.71
2018-04-11T00:01:21.126Z,9.7
2018-04-11T00:01:25.333Z,9.7
2018-04-11T00:01:29.336Z,9.7
2018-04-11T00:01:33.444Z,9.7
2018-04-11T00:01:37.548Z,9.71
2018-04-11T00:01:41.653Z,9.7
2018-04-11T00:01:45.649Z,9.71
2018-04-11T00:01:49.969Z,9.71
2018-04-11T00:01:54.291Z,9.72
2018-04-11T00:01:58.603Z,9.71
2018-04-11T00:02:02.818Z,9.72
2018-04-11T00:02:06.922Z,9.71
2018-04-11T00:02:11.128Z,9.72
2018-04-11T00:02:15.236Z,9.72
2018-04-11T00:02:19.269Z,9.72
2018-04-11T00:02:23.595Z,9.71
2018-04-11T00:02:27.699Z,9.73
2018-04-11T00:02:32.040Z,9.72
2018-04-11T00:02:36.366Z,9.73
2018-04-11T00:02:40.575Z,9.73
2018-04-11T00:02:44.685Z,9.73
2018-04-11T00:02:48.791Z,9.74
2018-04-11T00:02:53.109Z,9.73
2018-04-11T00:02:57.319Z,9.74
2018-04-11T00:03:01.529Z,9.74
2018-04-11T00:03:05.525Z,9.75
2018-04-11T00:03:09.409Z,9.75
2018-04-11T00:03:13.512Z,9.74
2018-04-11T00:03:17.728Z,9.75
2018-04-11T00:03:21.726Z,9.75
2018-04-11T00:03:25.935Z,9.76
2018-04-11T00:03:30.144Z,9.75
2018-04-11T00:03:34.356Z,9.75
2018-04-11T00:03:38.585Z,9.76
2018-04-11T00:03:42.686Z,9.75
2018-04-11T00:03:47.009Z,9.77
2018-04-11T00:03:51.217Z,9.77
2018-04-11T00:03:55.429Z,9.77
2018-04-11T00:03:59.532Z,9.77
2018-04-11T00:04:03.640Z,9.77
2018-04-11T00:04:07.742Z,9.77
2018-04-11T00:04:11.857Z,9.77
2018-04-11T00:04:15.854Z,9.78
2018-04-11T00:04:20.073Z,9.78
2018-04-11T00:04:24.280Z,9.78
2018-04-11T00:04:28.427Z,9.78
2018-04-11T00:04:32.528Z,9.79
2018-04-11T00:04:36.742Z,9.78
2018-04-11T00:04:40.948Z,9.79
2018-04-11T00:04:45.162Z,9.8
2018-04-11T00:04:49.260Z,9.79
2018-04-11T00:04:53.478Z,9.8
2018-04-11T00:04:57.795Z,9.8
2018-04-11T00:05:02.003Z,9.79
2018-04-11T00:05:05.784Z,9.81
2018-04-11T00:05:09.780Z,9.8
2018-04-11T00:05:14.004Z,9.8
2018-04-11T00:05:18.214Z,9.81
2018-04-11T00:05:22.537Z,9.8
2018-04-11T00:05:26.745Z,9.81
2018-04-11T00:05:31.072Z,9.81
2018-04-11T00:05:35.393Z,9.82
2018-04-11T00:05:39.714Z,9.82
2018-04-11T00:05:43.817Z,9.82
2018-04-11T00:05:47.928Z,9.82
2018-04-11T00:05:52.134Z,9.82
2018-04-11T00:05:56.234Z,9.82
2018-04-11T00:06:00.605Z,9.83
2018-04-11T00:06:04.703Z,9.83
2018-04-11T00:06:08.705Z,9.84
2018-04-11T00:06:12.807Z,9.83
2018-04-11T00:06:17.015Z,9.83
2018-04-11T00:06:21.123Z,9.84
2018-04-11T00:06:25.126Z,9.84
2018-04-11T00:06:29.223Z,9.84
2018-04-11T00:06:33.434Z,9.84
2018-04-11T00:06:37.540Z,9.86
2018-04-11T00:06:41.684Z,9.85
2018-04-11T00:06:45.898Z,9.84
2018-04-11T00:06:50.012Z,9.85
2018-04-11T00:06:54.222Z,9.85
2018-04-11T00:06:58.329Z,9.85
2018-04-11T00:07:02.660Z,9.86
2018-04-11T00:07:06.990Z,9.86
2018-04-11T00:07:10.878Z,9.85
2018-04-11T00:07:15.249Z,9.86
2018-04-11T00:07:19.478Z,9.87
2018-04-11T00:07:23.880Z,9.87
2018-04-11T00:07:28.093Z,9.86
2018-04-11T00:07:32.210Z,9.87
2018-04-11T00:07:36.544Z,9.87
2018-04-11T00:07:40.862Z,9.87
2018-04-11T00:07:45.079Z,9.88
2018-04-11T00:07:49.176Z,9.88
2018-04-11T00:07:53.387Z,9.88
2018-04-11T00:07:57.715Z,9.88
2018-04-11T00:08:02.283Z,9.88
2018-04-11T00:08:06.387Z,9.89
2018-04-11T00:08:10.385Z,9.9
2018-04-11T00:08:14.709Z,9.89
2018-04-11T00:08:18.925Z,9.9
2018-04-11T00:08:23.029Z,9.89
2018-04-11T00:08:27.135Z,9.9
2018-04-11T00:08:31.242Z,9.91
2018-04-11T00:08:35.452Z,9.91
2018-04-11T00:08:39.666Z,9.92
2018-04-11T00:08:43.873Z,9.92
2018-04-11T00:08:47.979Z,9.92
2018-04-11T00:08:51.868Z,9.92
2018-04-11T00:08:56.077Z,9.93
2018-04-11T00:09:00.176Z,9.93
2018-04-11T00:09:04.393Z,9.92
2018-04-11T00:09:08.706Z,9.93
2018-04-11T00:09:12.917Z,9.94
2018-04-11T00:09:17.132Z,9.93
2018-04-11T00:09:21.349Z,9.94
2018-04-11T00:09:25.555Z,9.94
2018-04-11T00:09:29.868Z,9.95
2018-04-11T00:09:34.073Z,9.95
2018-04-11T00:09:38.384Z,9.95
2018-04-11T00:09:42.696Z,9.96
2018-04-11T00:09:46.907Z,9.95
2018-04-11T00:09:50.903Z,9.95
2018-04-11T00:09:55.221Z,9.96
2018-04-11T00:09:59.536Z,9.96
2018-04-11T00:10:03.630Z,9.97
2018-04-11T00:10:07.867Z,9.97
2018-04-11T00:10:12.185Z,9.97
2018-04-11T00:10:16.294Z,9.98
2018-04-11T00:10:20.501Z,9.98
2018-04-11T00:10:24.714Z,9.98
2018-04-11T00:10:28.709Z,9.98
2018-04-11T00:10:33.032Z,9.99
2018-04-11T00:10:37.346Z,9.98
2018-04-11T00:10:41.564Z,9.99
2018-04-11T00:10:45.883Z,10
2018-04-11T00:10:49.982Z,9.98
2018-04-11T00:10:54.087Z,10
2018-04-11T00:10:58.304Z,9.99
2018-04-11T00:11:02.611Z,10
2018-04-11T00:11:06.720Z,9.99
2018-04-11T00:11:11.034Z,10
2018-04-11T00:11:15.351Z,10.01
2018-04-11T00:11:19.557Z,10
2018-04-11T00:11:23.875Z,10.01
2018-04-11T00:11:27.985Z,10.02
2018-04-11T00:11:31.984Z,10.02
2018-04-11T00:11:36.081Z,10.02
2018-04-11T00:11:40.418Z,10.02
2018-04-11T00:11:44.640Z,10.02
2018-04-11T00:11:48.959Z,10.03
2018-04-11T00:11:53.057Z,10.02
2018-04-11T00:11:57.165Z,10.03
2018-04-11T00:12:01.273Z,10.03
2018-04-11T00:12:05.535Z,10.03
2018-04-11T00:12:09.646Z,10.03
2018-04-11T00:12:13.963Z,10.04
2018-04-11T00:12:18.065Z,10.03
2018-04-11T00:12:22.291Z,10.04
2018-04-11T00:12:26.614Z,10.04
2018-04-11T00:12:30.727Z,10.04
2018-04-11T00:12:35.044Z,10.05
2018-04-11T00:12:39.366Z,10.05
2018-04-11T00:12:43.683Z,10.05
2018-04-11T00:12:47.898Z,10.05
2018-04-11T00:12:52.216Z,10.06
2018-04-11T00:12:56.429Z,10.06
2018-04-11T00:13:00.746Z,10.06
2018-04-11T00:13:04.983Z,10.06
2018-04-11T00:13:09.197Z,10.07
2018-04-11T00:13:13.402Z,10.07
2018-04-11T00:13:17.612Z,10.07
2018-04-11T00:13:21.815Z,10.08
2018-04-11T00:13:25.810Z,10.08
2018-04-11T00:13:29.906Z,10.08
2018-04-11T00:13:34.118Z,10.08
2018-04-11T00:13:38.218Z,10.08
2018-04-11T00:13:42.433Z,10.09
2018-04-11T00:13:46.756Z,10.08
2018-04-11T00:13:50.974Z,10.09
2018-04-11T00:13:55.078Z,10.1
2018-04-11T00:13:59.404Z,10.09
2018-04-11T00:14:03.812Z,10.11
2018-04-11T00:14:08.127Z,10.1
2018-04-11T00:14:12.234Z,10.09
2018-04-11T00:14:16.547Z,10.1
2018-04-11T00:14:20.759Z,10.1
2018-04-11T00:14:24.973Z,10.11
2018-04-11T00:14:29.006Z,10.11
2018-04-11T00:14:33.323Z,10.11
2018-04-11T00:14:37.581Z,10.11
2018-04-11T00:14:41.573Z,10.12
2018-04-11T00:14:45.897Z,10.12
2018-04-11T00:14:50.247Z,10.12
2018-04-11T00:14:54.473Z,10.12
2018-04-11T00:14:58.703Z,10.14
2018-04-11T00:15:03.283Z,10.14
2018-04-11T00:15:07.392Z,10.14
2018-04-11T00:15:11.495Z,10.13
2018-04-11T00:15:15.837Z,10.14
2018-04-11T00:15:20.151Z,10.14
2018-04-11T00:15:24.257Z,10.15
2018-04-11T00:15:28.579Z,10.15
2018-04-11T00:15:32.934Z,10.15
2018-04-11T00:15:37.250Z,10.15
2018-04-11T00:15:41.573Z,10.15
2018-04-11T00:15:45.795Z,10.15
2018-04-11T00:15:50.116Z,10.16
2018-04-11T00:15:54.433Z,10.16
2018-04-11T00:15:58.753Z,10.16
2018-04-11T00:16:03.269Z,10.16
2018-04-11T00:16:07.482Z,10.17
2018-04-11T00:16:11.688Z,10.17
2018-04-11T00:16:16.002Z,10.19
2018-04-11T00:16:20.108Z,10.17
2018-04-11T00:16:24.322Z,10.18
2018-04-11T00:16:28.465Z,10.17
2018-04-11T00:16:32.567Z,10.17
2018-04-11T00:16:36.885Z,10.19
2018-04-11T00:16:41.210Z,10.19
2018-04-11T00:16:45.429Z,10.19
2018-04-11T00:16:49.750Z,10.19
2018-04-11T00:16:53.971Z,10.2
2018-04-11T00:16:57.974Z,10.2
2018-04-11T00:17:02.070Z,10.2
2018-04-11T00:17:06.085Z,10.21
2018-04-11T00:17:10.296Z,10.2
2018-04-11T00:17:14.720Z,10.21
2018-04-11T00:17:18.925Z,10.21
2018-04-11T00:17:23.036Z,10.21
2018-04-11T00:17:27.240Z,10.21
2018-04-11T00:17:31.576Z,10.21
2018-04-11T00:17:35.677Z,10.23
2018-04-11T00:17:40.006Z,10.22
2018-04-11T00:17:43.999Z,10.23
2018-04-11T00:17:48.203Z,10.23
2018-04-11T00:17:52.552Z,10.23
2018-04-11T00:17:56.877Z,10.23
2018-04-11T00:18:00.888Z,10.22
2018-04-11T00:18:05.097Z,10.23
2018-04-11T00:18:09.202Z,10.23
2018-04-11T00:18:13.411Z,10.24
2018-04-11T00:18:17.742Z,10.24
2018-04-11T00:18:22.057Z,10.24
2018-04-11T00:18:26.263Z,10.25
2018-04-11T00:18:30.578Z,10.26
2018-04-11T00:18:34.894Z,10.25
2018-04-11T00:18:39.104Z,10.26
2018-04-11T00:18:43.200Z,10.26
2018-04-11T00:18:47.521Z,10.25
2018-04-11T00:18:51.732Z,10.28
2018-04-11T00:18:56.058Z,10.27
2018-04-11T00:19:00.165Z,10.27
2018-04-11T00:19:04.582Z,10.27
2018-04-11T00:19:08.805Z,10.28
2018-04-11T00:19:12.904Z,10.29
2018-04-11T00:19:17.122Z,10.28
2018-04-11T00:19:21.227Z,10.29
2018-04-11T00:19:25.548Z,10.3
2018-04-11T00:19:29.646Z,10.29
2018-04-11T00:19:33.960Z,10.29
2018-04-11T00:19:38.171Z,10.3
2018-04-11T00:19:42.529Z,10.31
2018-04-11T00:19:46.752Z,10.31
2018-04-11T00:19:51.074Z,10.3
2018-04-11T00:19:55.181Z,10.32
2018-04-11T00:19:59.403Z,10.31
2018-04-11T00:20:03.619Z,10.32
2018-04-11T00:20:07.762Z,10.32
2018-04-11T00:20:12.080Z,10.33
2018-04-11T00:20:16.084Z,10.33
2018-04-11T00:20:20.292Z,10.32
2018-04-11T00:20:24.615Z,10.34
2018-04-11T00:20:28.720Z,10.34
2018-04-11T00:20:32.943Z,10.32
2018-04-11T00:20:37.181Z,10.33
2018-04-11T00:20:41.494Z,10.34
2018-04-11T00:20:45.808Z,10.34
2018-04-11T00:20:50.023Z,10.34
2018-04-11T00:20:54.390Z,10.33
2018-04-11T00:20:58.507Z,10.34
2018-04-11T00:21:02.501Z,10.36
2018-04-11T00:21:06.602Z,10.35
2018-04-11T00:21:10.818Z,10.35
2018-04-11T00:21:15.135Z,10.35
2018-04-11T00:21:19.448Z,10.36
2018-04-11T00:21:23.673Z,10.36
2018-04-11T00:21:27.891Z,10.37
2018-04-11T00:21:31.992Z,10.36
2018-04-11T00:21:36.320Z,10.37
2018-04-11T00:21:40.524Z,10.37
2018-04-11T00:21:44.735Z,10.38
2018-04-11T00:21:49.053Z,10.37
2018-04-11T00:21:53.262Z,10.38
2018-04-11T00:21:57.582Z,10.38
2018-04-11T00:22:01.677Z,10.38
2018-04-11T00:22:05.674Z,10.39
2018-04-11T00:22:09.777Z,10.39
2018-04-11T00:22:14.095Z,10.4
2018-04-11T00:22:18.310Z,10.39
2018-04-11T00:22:22.517Z,10.4
2018-04-11T00:22:26.625Z,10.4
2018-04-11T00:22:30.843Z,10.39
2018-04-11T00:22:35.162Z,10.4
2018-04-11T00:22:39.371Z,10.41
2018-04-11T00:22:43.694Z,10.41
2018-04-11T00:22:47.906Z,10.41
2018-04-11T00:22:52.222Z,10.41
2018-04-11T00:22:56.431Z,10.42
2018-04-11T00:23:00.747Z,10.42
2018-04-11T00:23:05.156Z,10.42
2018-04-11T00:23:09.255Z,10.42
2018-04-11T00:23:13.355Z,10.43
2018-04-11T00:23:17.569Z,10.43
2018-04-11T00:23:21.882Z,10.43
2018-04-11T00:23:25.985Z,10.43
2018-04-11T00:23:30.200Z,10.43
2018-04-11T00:23:34.410Z,10.44
2018-04-11T00:23:38.623Z,10.44
2018-04-11T00:23:42.852Z,10.44
2018-04-11T00:23:47.060Z,10.45
2018-04-11T00:23:51.383Z,10.45
2018-04-11T00:23:55.708Z,10.45
2018-04-11T00:23:59.915Z,10.45
2018-04-11T00:24:04.037Z,10.45
2018-04-11T00:24:07.926Z,10.45
2018-04-11T00:24:11.814Z,10.47
2018-04-11T00:24:15.823Z,10.46
2018-04-11T00:24:20.143Z,10.46
2018-04-11T00:24:24.263Z,10.46
2018-04-11T00:24:28.262Z,10.48
2018-04-11T00:24:32.584Z,10.47
2018-04-11T00:24:36.900Z,10.47
2018-04-11T00:24:41.113Z,10.47
2018-04-11T00:24:45.438Z,10.47
2018-04-11T00:24:49.648Z,10.47
2018-04-11T00:24:53.967Z,10.47
2018-04-11T00:24:58.066Z,10.47
2018-04-11T00:25:02.624Z,10.48
2018-04-11T00:25:06.624Z,10.48
2018-04-11T00:25:10.726Z,10.48
2018-04-11T00:25:15.046Z,10.48
2018-04-11T00:25:19.373Z,10.48
2018-04-11T00:25:23.259Z,10.48
2018-04-11T00:25:27.572Z,10.48
2018-04-11T00:25:31.781Z,10.49
2018-04-11T00:25:35.888Z,10.5
2018-04-11T00:25:40.092Z,10.49
2018-04-11T00:25:44.197Z,10.49
2018-04-11T00:25:48.515Z,10.49
2018-04-11T00:25:52.722Z,10.49
2018-04-11T00:25:56.940Z,10.5
2018-04-11T00:26:01.261Z,10.5
2018-04-11T00:26:05.661Z,10.5
2018-04-11T00:26:09.651Z,10.5
2018-04-11T00:26:13.982Z,10.5
2018-04-11T00:26:18.087Z,10.49
2018-04-11T00:26:22.301Z,10.5
2018-04-11T00:26:26.513Z,10.49
2018-04-11T00:26:30.730Z,10.5
2018-04-11T00:26:34.939Z,10.51
2018-04-11T00:26:39.036Z,10.51
2018-04-11T00:26:43.136Z,10.51
2018-04-11T00:26:47.469Z,10.5
2018-04-11T00:26:51.676Z,10.51
2018-04-11T00:26:55.901Z,10.5
2018-04-11T00:27:00.117Z,10.51
2018-04-11T00:27:04.419Z,10.51
2018-04-11T00:27:08.417Z,10.5
2018-04-11T00:27:12.625Z,10.51
2018-04-11T00:27:16.836Z,10.51
2018-04-11T00:27:21.052Z,10.5
2018-04-11T00:27:24.943Z,10.51
2018-04-11T00:27:29.307Z,10.51
2018-04-11T00:27:33.509Z,10.51
2018-04-11T00:27:37.827Z,10.51
2018-04-11T00:27:42.053Z,10.51
2018-04-11T00:27:46.284Z,10.51
2018-04-11T00:27:50.385Z,10.5
2018-04-11T00:27:54.700Z,10.51
2018-04-11T00:27:58.807Z,10.51
2018-04-11T00:28:02.909Z,10.52
2018-04-11T00:28:07.245Z,10.51
2018-04-11T00:28:11.462Z,10.51
2018-04-11T00:28:15.775Z,10.52
2018-04-11T00:28:19.985Z,10.51
2018-04-11T00:28:24.194Z,10.51
2018-04-11T00:28:28.409Z,10.51
2018-04-11T00:28:32.728Z,10.51
2018-04-11T00:28:37.044Z,10.51
2018-04-11T00:28:41.376Z,10.51
2018-04-11T00:28:45.699Z,10.5
2018-04-11T00:28:49.911Z,10.5
2018-04-11T00:28:54.241Z,10.51
2018-04-11T00:28:58.558Z,10.51
2018-04-11T00:29:02.736Z,10.5
2018-04-11T00:29:06.844Z,10.51
2018-04-11T00:29:11.047Z,10.51
2018-04-11T00:29:15.049Z,10.51
2018-04-11T00:29:19.360Z,10.51
2018-04-11T00:29:23.685Z,10.51
2018-04-11T00:29:27.902Z,10.51
2018-04-11T00:29:32.020Z,10.51
2018-04-11T00:29:36.339Z,10.51
2018-04-11T00:29:40.664Z,10.51
2018-04-11T00:29:45.053Z,10.51
2018-04-11T00:29:49.387Z,10.51
2018-04-11T00:29:53.489Z,10.51
2018-04-11T00:29:57.595Z,10.5
2018-04-11T00:30:01.695Z,10.51
2018-04-11T00:30:05.854Z,10.51
2018-04-11T00:30:09.853Z,10.51
2018-04-11T00:30:14.071Z,10.5
2018-04-11T00:30:18.387Z,10.51
2018-04-11T00:30:22.487Z,10.5
2018-04-11T00:30:26.696Z,10.5
2018-04-11T00:30:30.908Z,10.5
2018-04-11T00:30:35.013Z,10.51
2018-04-11T00:30:39.328Z,10.51
2018-04-11T00:30:43.653Z,10.51
2018-04-11T00:30:47.969Z,10.5
2018-04-11T00:30:52.284Z,10.51
2018-04-11T00:30:56.387Z,10.51
2018-04-11T00:31:00.709Z,10.51
2018-04-11T00:31:04.808Z,10.5
2018-04-11T00:31:08.912Z,10.5
2018-04-11T00:31:13.123Z,10.5
2018-04-11T00:31:17.330Z,10.5
2018-04-11T00:31:21.541Z,10.5
2018-04-11T00:31:25.544Z,10.5
2018-04-11T00:31:29.539Z,10.5
2018-04-11T00:31:33.643Z,10.5
2018-04-11T00:31:37.955Z,10.5
2018-04-11T00:31:42.165Z,10.49
2018-04-11T00:31:46.488Z,10.49
2018-04-11T00:31:50.801Z,10.5
2018-04-11T00:31:55.159Z,10.5
2018-04-11T00:31:59.382Z,10.5
2018-04-11T00:32:03.391Z,10.5
2018-04-11T00:32:07.605Z,10.5
2018-04-11T00:32:11.816Z,10.5
2018-04-11T00:32:15.919Z,10.49
2018-04-11T00:32:20.177Z,10.5
2018-04-11T00:32:24.187Z,10.49
2018-04-11T00:32:28.393Z,10.5
2018-04-11T00:32:32.712Z,10.49
2018-04-11T00:32:36.920Z,10.49
2018-04-11T00:32:41.124Z,10.5
2018-04-11T00:32:45.328Z,10.49
2018-04-11T00:32:49.533Z,10.5
2018-04-11T00:32:53.744Z,10.49
2018-04-11T00:32:57.957Z,10.49
2018-04-11T00:33:02.359Z,10.49
2018-04-11T00:33:06.463Z,10.5
2018-04-11T00:33:10.676Z,10.49
2018-04-11T00:33:14.787Z,10.49
2018-04-11T00:33:19.103Z,10.49
2018-04-11T00:33:23.200Z,10.49
2018-04-11T00:33:27.407Z,10.5
2018-04-11T00:33:31.724Z,10.48
2018-04-11T00:33:35.941Z,10.49
2018-04-11T00:33:40.156Z,10.49
2018-04-11T00:33:44.473Z,10.48
2018-04-11T00:33:48.787Z,10.48
2018-04-11T00:33:53.106Z,10.49
2018-04-11T00:33:57.426Z,10.49
2018-04-11T00:34:01.532Z,10.47
2018-04-11T00:34:05.678Z,10.48
2018-04-11T00:34:09.780Z,10.49
2018-04-11T00:34:13.987Z,10.49
2018-04-11T00:34:18.301Z,10.48
2018-04-11T00:34:22.503Z,10.49
2018-04-11T00:34:26.841Z,10.48
2018-04-11T00:34:31.054Z,10.48
2018-04-11T00:34:35.263Z,10.49
2018-04-11T00:34:39.588Z,10.48
2018-04-11T00:34:43.798Z,10.49
2018-04-11T00:34:48.109Z,10.48
2018-04-11T00:34:52.108Z,10.47
2018-04-11T00:34:56.319Z,10.47
2018-04-11T00:35:00.646Z,10.47
2018-04-11T00:35:05.211Z,10.48
2018-04-11T00:35:09.552Z,10.48
2018-04-11T00:35:13.886Z,10.48
2018-04-11T00:35:17.985Z,10.48
2018-04-11T00:35:22.305Z,10.47
2018-04-11T00:35:26.627Z,10.48
2018-04-11T00:35:30.945Z,10.47
2018-04-11T00:35:35.051Z,10.48
2018-04-11T00:35:39.256Z,10.48
2018-04-11T00:35:43.568Z,10.47
2018-04-11T00:35:47.881Z,10.47
2018-04-11T00:35:52.089Z,10.47
2018-04-11T00:35:56.301Z,10.46
2018-04-11T00:36:00.526Z,10.46
2018-04-11T00:36:04.886Z,10.47
2018-04-11T00:36:08.888Z,10.47
2018-04-11T00:36:13.101Z,10.47
2018-04-11T00:36:17.424Z,10.46
2018-04-11T00:36:21.527Z,10.46
2018-04-11T00:36:25.734Z,10.47
2018-04-11T00:36:30.049Z,10.47
2018-04-11T00:36:34.154Z,10.46
2018-04-11T00:36:38.477Z,10.47
2018-04-11T00:36:42.806Z,10.46
2018-04-11T00:36:47.141Z,10.46
2018-04-11T00:36:51.356Z,10.46
2018-04-11T00:36:55.473Z,10.46
2018-04-11T00:36:59.788Z,10.45
2018-04-11T00:37:04.212Z,10.46
2018-04-11T00:37:08.418Z,10.46
2018-04-11T00:37:12.743Z,10.46
2018-04-11T00:37:16.952Z,10.44
2018-04-11T00:37:21.155Z,10.45
2018-04-11T00:37:25.251Z,10.45
2018-04-11T00:37:29.454Z,10.46
2018-04-11T00:37:33.771Z,10.44
2018-04-11T00:37:37.974Z,10.45
2018-04-11T00:37:42.289Z,10.45
2018-04-11T00:37:46.615Z,10.45
2018-04-11T00:37:50.827Z,10.44
2018-04-11T00:37:55.039Z,10.44
2018-04-11T00:37:59.369Z,10.44
2018-04-11T00:38:03.262Z,10.44
2018-04-11T00:38:07.475Z,10.43
2018-04-11T00:38:11.791Z,10.44
2018-04-11T00:38:16.000Z,10.43
2018-04-11T00:38:20.317Z,10.44
2018-04-11T00:38:24.526Z,10.44
2018-04-11T00:38:28.625Z,10.43
2018-04-11T00:38:32.940Z,10.43
2018-04-11T00:38:37.148Z,10.43
2018-04-11T00:38:41.509Z,10.43
2018-04-11T00:38:45.719Z,10.43
2018-04-11T00:38:50.030Z,10.42
2018-04-11T00:38:54.237Z,10.41
2018-04-11T00:38:58.378Z,10.41
2018-04-11T00:39:02.370Z,10.42
2018-04-11T00:39:06.583Z,10.41
2018-04-11T00:39:10.582Z,10.41
2018-04-11T00:39:14.690Z,10.4
2018-04-11T00:39:18.893Z,10.4
2018-04-11T00:39:23.105Z,10.4
2018-04-11T00:39:27.323Z,10.41
2018-04-11T00:39:31.635Z,10.4
2018-04-11T00:39:35.949Z,10.4
2018-04-11T00:39:40.048Z,10.39
2018-04-11T00:39:44.376Z,10.39
2018-04-11T00:39:48.692Z,10.39
2018-04-11T00:39:52.918Z,10.39
2018-04-11T00:39:57.244Z,10.39
2018-04-11T00:40:01.820Z,10.39
2018-04-11T00:40:05.926Z,10.38
2018-04-11T00:40:10.030Z,10.39
2018-04-11T00:40:14.237Z,10.38
2018-04-11T00:40:18.462Z,10.38
2018-04-11T00:40:22.693Z,10.38
2018-04-11T00:40:27.011Z,10.37
2018-04-11T00:40:31.067Z,10.37
2018-04-11T00:40:35.379Z,10.37
2018-04-11T00:40:39.591Z,10.37
2018-04-11T00:40:43.904Z,10.36
2018-04-11T00:40:48.220Z,10.37
2018-04-11T00:40:52.537Z,10.36
2018-04-11T00:40:56.751Z,10.35
2018-04-11T00:41:00.965Z,10.36
2018-04-11T00:41:05.221Z,10.36
2018-04-11T00:41:09.434Z,10.36
2018-04-11T00:41:13.645Z,10.35
2018-04-11T00:41:17.867Z,10.36
2018-04-11T00:41:21.973Z,10.36
2018-04-11T00:41:26.291Z,10.35
2018-04-11T00:41:30.403Z,10.35
2018-04-11T00:41:34.507Z,10.35
2018-04-11T00:41:38.572Z,10.35
2018-04-11T00:41:42.888Z,10.34
2018-04-11T00:41:47.099Z,10.34
2018-04-11T00:41:51.411Z,10.34
2018-04-11T00:41:55.735Z,10.33
2018-04-11T00:41:59.838Z,10.33
2018-04-11T00:42:03.999Z,10.33
2018-04-11T00:42:07.993Z,10.33
2018-04-11T00:42:12.205Z,10.33
2018-04-11T00:42:16.201Z,10.32
2018-04-11T00:42:20.412Z,10.32
2018-04-11T00:42:24.417Z,10.31
2018-04-11T00:42:28.737Z,10.32
2018-04-11T00:42:32.848Z,10.32
2018-04-11T00:42:36.954Z,10.31
2018-04-11T00:42:41.275Z,10.31
2018-04-11T00:42:45.485Z,10.31
2018-04-11T00:42:49.800Z,10.31
2018-04-11T00:42:54.007Z,10.31
2018-04-11T00:42:58.215Z,10.3
2018-04-11T00:43:02.621Z,10.3
2018-04-11T00:43:06.857Z,10.3
2018-04-11T00:43:11.075Z,10.29
2018-04-11T00:43:15.173Z,10.29
2018-04-11T00:43:19.384Z,10.29
2018-04-11T00:43:23.479Z,10.29
2018-04-11T00:43:27.801Z,10.29
2018-04-11T00:43:32.129Z,10.29
2018-04-11T00:43:36.442Z,10.28
2018-04-11T00:43:40.665Z,10.28
2018-04-11T00:43:44.983Z,10.27
2018-04-11T00:43:49.194Z,10.26
2018-04-11T00:43:53.301Z,10.27
2018-04-11T00:43:57.623Z,10.27
2018-04-11T00:44:01.846Z,10.25
2018-04-11T00:44:06.062Z,10.26
2018-04-11T00:44:10.165Z,10.26
2018-04-11T00:44:14.476Z,10.26
2018-04-11T00:44:18.799Z,10.26
2018-04-11T00:44:23.133Z,10.25
2018-04-11T00:44:27.379Z,10.25
2018-04-11T00:44:31.585Z,10.24
2018-04-11T00:44:35.795Z,10.25
2018-04-11T00:44:40.003Z,10.24
2018-04-11T00:44:44.317Z,10.25
2018-04-11T00:44:48.536Z,10.24
2018-04-11T00:44:52.743Z,10.23
2018-04-11T00:44:56.629Z,10.24
2018-04-11T00:45:00.729Z,10.23
2018-04-11T00:45:04.724Z,10.22
2018-04-11T00:45:08.615Z,10.23
2018-04-11T00:45:12.938Z,10.22
2018-04-11T00:45:17.148Z,10.23
2018-04-11T00:45:21.356Z,10.21
2018-04-11T00:45:25.462Z,10.22
2018-04-11T00:45:29.795Z,10.22
2018-04-11T00:45:34.006Z,10.22
2018-04-11T00:45:38.327Z,10.21
2018-04-11T00:45:42.689Z,10.21
2018-04-11T00:45:47.006Z,10.21
2018-04-11T00:45:51.211Z,10.21
2018-04-11T00:45:55.417Z,10.2
2018-04-11T00:45:59.633Z,10.2
2018-04-11T00:46:03.881Z,10.2
2018-04-11T00:46:07.994Z,10.19
2018-04-11T00:46:12.316Z,10.19
2018-04-11T00:46:16.634Z,10.18
2018-04-11T00:46:20.883Z,10.19
2018-04-11T00:46:25.326Z,10.19
2018-04-11T00:46:29.505Z,10.18
2018-04-11T00:46:33.618Z,10.18
2018-04-11T00:46:37.719Z,10.17
2018-04-11T00:46:41.939Z,10.18
2018-04-11T00:46:46.155Z,10.17
2018-04-11T00:46:50.477Z,10.17
2018-04-11T00:46:54.681Z,10.16
2018-04-11T00:46:58.782Z,10.17
2018-04-11T00:47:03.245Z,10.16
2018-04-11T00:47:07.487Z,10.15
2018-04-11T00:47:11.594Z,10.16
2018-04-11T00:47:15.813Z,10.16
2018-04-11T00:47:20.138Z,10.15
2018-04-11T00:47:24.357Z,10.15
2018-04-11T00:47:28.565Z,10.15
2018-04-11T00:47:32.665Z,10.15
2018-04-11T00:47:36.985Z,10.14
2018-04-11T00:47:41.305Z,10.15
2018-04-11T00:47:45.519Z,10.15
2018-04-11T00:47:49.630Z,10.15
2018-04-11T00:47:53.979Z,10.15
2018-04-11T00:47:58.300Z,10.14
2018-04-11T00:48:02.704Z,10.14
2018-04-11T00:48:06.926Z,10.14
2018-04-11T00:48:11.141Z,10.14
2018-04-11T00:48:15.351Z,10.13
2018-04-11T00:48:19.459Z,10.13
2018-04-11T00:48:23.785Z,10.13
2018-04-11T00:48:27.780Z,10.12
2018-04-11T00:48:32.091Z,10.12
2018-04-11T00:48:36.403Z,10.13
2018-04-11T00:48:40.611Z,10.12
2018-04-11T00:48:44.929Z,10.12
2018-04-11T00:48:49.258Z,10.11
2018-04-11T00:48:53.256Z,10.12
2018-04-11T00:48:57.374Z,10.12
2018-04-11T00:49:01.477Z,10.11
2018-04-11T00:49:05.990Z,10.11
2018-04-11T00:49:10.204Z,10.11
2018-04-11T00:49:14.416Z,10.11
2018-04-11T00:49:18.731Z,10.11
2018-04-11T00:49:22.937Z,10.11
2018-04-11T00:49:27.050Z,10.11
2018-04-11T00:49:31.151Z,10.1
2018-04-11T00:49:35.356Z,10.11
2018-04-11T00:49:39.670Z,10.11
2018-04-11T00:49:43.879Z,10.1
2018-04-11T00:49:48.193Z,10.11
2018-04-11T00:49:52.296Z,10.1
2018-04-11T00:49:56.615Z,10.11
2018-04-11T00:50:00.725Z,10.1
2018-04-11T00:50:04.618Z,10.11
2018-04-11T00:50:08.718Z,10.1
2018-04-11T00:50:13.043Z,10.1
2018-04-11T00:50:17.371Z,10.1
2018-04-11T00:50:21.483Z,10.09
2018-04-11T00:50:25.694Z,10.09
2018-04-11T00:50:29.918Z,10.09
2018-04-11T00:50:34.230Z,10.08
2018-04-11T00:50:38.341Z,10.09
2018-04-11T00:50:42.658Z,10.09
2018-04-11T00:50:46.977Z,10.08
2018-04-11T00:50:51.294Z,10.08
2018-04-11T00:50:55.604Z,10.08
2018-04-11T00:50:59.812Z,10.08
2018-04-11T00:51:03.913Z,10.08
2018-04-11T00:51:08.229Z,10.08
2018-04-11T00:51:12.332Z,10.08
2018-04-11T00:51:16.541Z,10.08
2018-04-11T00:51:20.750Z,10.08
2018-04-11T00:51:24.958Z,10.07
2018-04-11T00:51:29.279Z,10.08
2018-04-11T00:51:33.379Z,10.08
2018-04-11T00:51:37.695Z,10.07
2018-04-11T00:51:41.805Z,10.07
2018-04-11T00:51:45.906Z,10.08
2018-04-11T00:51:50.012Z,10.07
2018-04-11T00:51:54.322Z,10.07
2018-04-11T00:51:58.529Z,10.07
2018-04-11T00:52:02.429Z,10.06
2018-04-11T00:52:06.430Z,10.07
2018-04-11T00:52:10.530Z,10.06
2018-04-11T00:52:14.847Z,10.07
2018-04-11T00:52:19.052Z,10.06
2018-04-11T00:52:23.257Z,10.06
2018-04-11T00:52:27.467Z,10.07
2018-04-11T00:52:31.568Z,10.06
2018-04-11T00:52:35.929Z,10.06
2018-04-11T00:52:40.136Z,10.07
2018-04-11T00:52:44.458Z,10.06
2018-04-11T00:52:48.678Z,10.06
2018-04-11T00:52:52.680Z,10.06
2018-04-11T00:52:56.888Z,10.05
2018-04-11T00:53:01.094Z,10.07
2018-04-11T00:53:05.255Z,10.06
2018-04-11T00:53:09.246Z,10.05
2018-04-11T00:53:13.560Z,10.05
2018-04-11T00:53:17.767Z,10.05
2018-04-11T00:53:22.081Z,10.05
2018-04-11T00:53:26.179Z,10.05
2018-04-11T00:53:30.499Z,10.05
2018-04-11T00:53:34.605Z,10.04
2018-04-11T00:53:38.923Z,10.05
2018-04-11T00:53:43.145Z,10.05
2018-04-11T00:53:47.460Z,10.06
2018-04-11T00:53:51.668Z,10.05
2018-04-11T00:53:55.875Z,10.04
2018-04-11T00:54:00.090Z,10.05
2018-04-11T00:54:04.457Z,10.04
2018-04-11T00:54:08.670Z,10.04
2018-04-11T00:54:12.768Z,10.05
2018-04-11T00:54:17.084Z,10.05
2018-04-11T00:54:21.402Z,10.04
2018-04-11T00:54:25.639Z,10.05
2018-04-11T00:54:29.642Z,10.05
2018-04-11T00:54:33.850Z,10.04
2018-04-11T00:54:38.165Z,10.05
2018-04-11T00:54:42.267Z,10.04
2018-04-11T00:54:46.607Z,10.05
2018-04-11T00:54:50.926Z,10.04